»·PEaware :: ASA625 KDEN-KBIL

ASA625 :: KDEN-KBIL

FLIGHT INFORMATION

Flight Status: Arrived
Operator:
Alaska Airlines
More flights by this operator :: More flights under this callsign
Pilot: Pratham R. (19019)
Aircraft: AIRBUS A320
(A320)
More flights by this aircraft type
Origin: KDEN Denver Intl
United States
Destination: KBIL Billings Logan Intl
United States
More flights between these airports :: More routes between these airports
Route: EXWNG1 EXWNG BGHRN BGHRN3
File this flight plan on PilotEdge
Remarks: RMK / SIMBRIEF
Altitude:
(Current/Filed)
36,000ft
Speed:
(Current/Filed)
455kts
Departed: 18-Jul-20 05:29 PM
Arrived: 18-Jul-20 06:43 PM
Distance/Time
Traveled:
395nm/1:14
Distance/Time
To Go:
Arrived

Flight Plot

Page will automatically refresh every two minutes.

Flight plan parsing failed; only flown route is shown


Map Options




Map Legend


Flown Route
Filed Route
Departure Airport
Arrival Airport
Navaid (VOR, NDB)
Fix

Horizontal Profiles

Position Reports

Time Latitude Longitude Heading Altitude Ground
Speed
18-Jul-20 16:57 39.863537 -104.678354 177 5443ft 0kts
18-Jul-20 16:58 39.863537 -104.678354 177 5443ft 0kts
18-Jul-20 16:59 39.863537 -104.678354 177 5443ft 0kts
18-Jul-20 17:00 39.863537 -104.678354 177 5443ft 0kts
18-Jul-20 17:01 39.863537 -104.678354 177 5443ft 0kts
18-Jul-20 17:02 39.863537 -104.678354 177 5443ft 0kts
18-Jul-20 17:03 39.863537 -104.678354 177 5443ft 0kts
18-Jul-20 17:04 39.863537 -104.678354 177 5443ft 0kts
18-Jul-20 17:05 39.863537 -104.678354 177 5443ft 0kts
18-Jul-20 17:06 39.863537 -104.678354 177 5443ft 0kts
18-Jul-20 17:07 39.863537 -104.678354 177 5443ft 0kts
18-Jul-20 17:08 39.863537 -104.678354 177 5443ft 0kts
18-Jul-20 17:09 39.863537 -104.678354 177 5443ft 0kts
18-Jul-20 17:10 39.863537 -104.678354 177 5443ft 0kts
18-Jul-20 17:11 39.863537 -104.678354 177 5443ft 0kts
18-Jul-20 17:12 39.863537 -104.678354 177 5443ft 0kts
18-Jul-20 17:13 39.863537 -104.678354 177 5443ft 0kts
18-Jul-20 17:14 39.863537 -104.678354 177 5443ft 0kts
18-Jul-20 17:15 39.863537 -104.678354 177 5443ft 0kts
18-Jul-20 17:16 39.863537 -104.678354 177 5443ft 0kts
18-Jul-20 17:17 39.863537 -104.678354 177 5443ft 0kts
18-Jul-20 17:18 39.863910 -104.678260 212 5443ft 2kts
18-Jul-20 17:19 39.864164 -104.677678 271 5443ft 1kts
18-Jul-20 17:20 39.864163 -104.677632 269 5443ft 0kts
18-Jul-20 17:21 39.864163 -104.677632 269 5443ft 0kts
18-Jul-20 17:22 39.864163 -104.677633 269 5443ft 0kts
18-Jul-20 17:23 39.864163 -104.677700 269 5443ft 2kts
18-Jul-20 17:24 39.864262 -104.683239 270 5443ft 10kts
18-Jul-20 17:25 39.864275 -104.684377 270 5443ft 0kts
18-Jul-20 17:26 39.864280 -104.685706 270 5443ft 2kts
18-Jul-20 17:27 39.864994 -104.687195 0 5443ft 7kts
18-Jul-20 17:28 39.895490 -104.685963 1 6317ft 175kts
18-Jul-20 17:29 39.948264 -104.684778 1 8583ft 224kts
18-Jul-20 17:31 40.022797 -104.683617 0 9984ft 293kts
18-Jul-20 17:32 40.106662 -104.678705 5 11912ft 307kts
18-Jul-20 17:33 40.192326 -104.682747 349 15198ft 316kts
18-Jul-20 17:34 40.278964 -104.706619 348 18316ft 320kts
18-Jul-20 17:35 40.372793 -104.733200 347 19754ft 369kts
18-Jul-20 17:36 40.475700 -104.762347 347 21941ft 381kts
18-Jul-20 17:37 40.580189 -104.791993 346 24020ft 391kts
18-Jul-20 17:38 40.688244 -104.822726 346 25897ft 401kts
18-Jul-20 17:39 40.796968 -104.859739 331 27620ft 408kts
18-Jul-20 17:40 40.896395 -104.933684 328 29121ft 418kts
18-Jul-20 17:41 40.999342 -105.010850 328 30480ft 428kts
18-Jul-20 17:42 41.101655 -105.087803 328 31917ft 430kts
18-Jul-20 17:43 41.206058 -105.166614 328 33204ft 432kts
18-Jul-20 17:44 41.309938 -105.245328 328 34681ft 425kts
18-Jul-20 17:45 41.412321 -105.323184 328 35889ft 423kts
18-Jul-20 17:45 41.498432 -105.384731 333 36285ft 421kts
18-Jul-20 17:47 41.622715 -105.461459 333 36281ft 422kts
18-Jul-20 17:48 41.729931 -105.527942 333 36246ft 422kts
18-Jul-20 17:48 41.818662 -105.583153 333 36263ft 422kts
18-Jul-20 17:49 41.925700 -105.649983 333 36280ft 422kts
18-Jul-20 17:51 42.049580 -105.727624 332 36225ft 423kts
18-Jul-20 17:52 42.156748 -105.795063 332 36211ft 423kts
18-Jul-20 17:52 42.245770 -105.851274 332 36158ft 423kts
18-Jul-20 17:53 42.352416 -105.918848 332 36152ft 423kts
18-Jul-20 17:55 42.477017 -105.998125 332 36138ft 422kts
18-Jul-20 17:55 42.565347 -106.054536 332 36132ft 422kts
18-Jul-20 17:56 42.671680 -106.122676 332 36127ft 422kts
18-Jul-20 17:57 42.777889 -106.191002 332 36128ft 422kts
18-Jul-20 17:58 42.884428 -106.259801 332 36133ft 422kts
18-Jul-20 17:59 42.990448 -106.328525 330 36184ft 416kts
18-Jul-20 18:00 43.093481 -106.395574 329 36181ft 402kts
18-Jul-20 18:01 43.194145 -106.461345 329 36084ft 396kts
18-Jul-20 18:02 43.293457 -106.526455 329 36081ft 395kts
18-Jul-20 18:03 43.392778 -106.591794 329 36083ft 396kts
18-Jul-20 18:04 43.492337 -106.657529 328 36120ft 398kts
18-Jul-20 18:05 43.592466 -106.723885 328 36104ft 400kts
18-Jul-20 18:06 43.692934 -106.790719 328 36035ft 400kts
18-Jul-20 18:07 43.793467 -106.857849 328 36010ft 401kts
18-Jul-20 18:08 43.894217 -106.925374 329 35991ft 405kts
18-Jul-20 18:09 43.995875 -106.993763 329 36001ft 410kts
18-Jul-20 18:10 44.099977 -107.064071 329 36022ft 415kts
18-Jul-20 18:11 44.204145 -107.134701 329 36069ft 418kts
18-Jul-20 18:12 44.308273 -107.205590 329 35755ft 421kts
18-Jul-20 18:13 44.415711 -107.278990 330 32854ft 426kts
18-Jul-20 18:14 44.520152 -107.350696 330 30888ft 409kts
18-Jul-20 18:15 44.620535 -107.419660 331 29042ft 390kts
18-Jul-20 18:16 44.717193 -107.486514 331 28086ft 385kts
18-Jul-20 18:17 44.813352 -107.553300 331 27180ft 381kts
18-Jul-20 18:18 44.906745 -107.618421 332 25471ft 367kts
18-Jul-20 18:19 44.999667 -107.683420 331 23035ft 364kts
18-Jul-20 18:20 45.088563 -107.745857 330 21185ft 346kts
18-Jul-20 18:21 45.173402 -107.805626 330 19418ft 330kts
18-Jul-20 18:22 45.252687 -107.867656 318 17751ft 313kts
18-Jul-20 18:23 45.319149 -107.945345 318 16195ft 304kts
18-Jul-20 18:24 45.384636 -108.021894 319 14610ft 301kts
18-Jul-20 18:25 45.452066 -108.100956 319 13406ft 309kts
18-Jul-20 18:26 45.518123 -108.178710 319 12005ft 292kts
18-Jul-20 18:27 45.569462 -108.263525 306 10853ft 275kts
18-Jul-20 18:28 45.614827 -108.351914 306 9490ft 268kts
18-Jul-20 18:29 45.658823 -108.437912 306 8332ft 255kts
18-Jul-20 18:30 45.695533 -108.517900 293 7787ft 228kts
18-Jul-20 18:31 45.718889 -108.601300 294 6863ft 221kts
18-Jul-20 18:32 45.741150 -108.680794 293 6220ft 222kts
18-Jul-20 18:33 45.763308 -108.767469 291 6198ft 229kts
18-Jul-20 18:34 45.785422 -108.854425 291 6198ft 228kts
18-Jul-20 18:35 45.815044 -108.935516 311 6002ft 227kts
18-Jul-20 18:36 45.867426 -108.933864 65 6001ft 238kts
18-Jul-20 18:37 45.875894 -108.838479 81 5999ft 229kts
18-Jul-20 18:38 45.866779 -108.751923 112 5950ft 212kts
18-Jul-20 18:39 45.845737 -108.674281 109 5703ft 194kts
18-Jul-20 18:40 45.826848 -108.606785 106 4529ft 157kts
18-Jul-20 18:41 45.811377 -108.550234 107 3664ft 147kts
18-Jul-20 18:42 45.804651 -108.529003 221 3660ft 10kts
18-Jul-20 18:43 45.805071 -108.534335 291 3660ft 13kts
18-Jul-20 18:44 45.804527 -108.536820 172 3660ft 1kts
18-Jul-20 18:45 45.804473 -108.536812 173 3660ft 0kts
18-Jul-20 18:46 45.804474 -108.536812 173 3660ft 0kts
18-Jul-20 18:47 45.804474 -108.536812 173 3660ft 0kts
18-Jul-20 18:48 45.804474 -108.536812 173 3660ft 0kts
18-Jul-20 18:49 45.804474 -108.536812 173 3660ft 0kts
18-Jul-20 18:50 45.804474 -108.536812 173 3660ft 0kts

Navigation Log

Ident Type
Flight plan parsing failed, navigation log unavailable